Issue Checklist for Creator Ed Brisson:

Displaying 1 to 86 of 86 issues matching your query.

In the checklist results for stories, covers, and cartoons are shown. Text credits are currently being migrated to links. Therefore not all credits in our database are shown here.

Publisher Issue Publication Date On-sale Date
USImage Fractured Fables (Free Comic Book Day Edition) (2010 series) May 2010 2010-05-01
USImage Glory (2012 series) #32 January 2013 2013-01-30
USImage Glory (2012 series) #33 March 2013 2013-03-06
USImage Glory (2012 series) #34 April 2013 2013-04-03
USImage Image Firsts: Peter Panzerfaust (2013 series) #1 May 2013 2013
USOni Press The Strangers #1 Free Comic Book Day Edition (2013 series) #1 May 2013 2013-05-04
USImage Glory (2012 series) #2 - War Torn July 2013 2013
USOni Press The Mysterious Strangers (2013 series) #3 August 2013 2013-08-28
USImage Image Firsts: Rat Queens (2014 series) #1 April 2014 2014-04-30
USImage Shutter (2014 series) #1 [Cover A] April 2014 2014-04-09
USImage Shutter (2014 series) #1 - Wanderlost November 2014 2014-11-12
USImage Image Firsts: Shutter (2014 series) #1 December 2014
USImage Pisces (2015 series) #1 April 2015 2015-04-29
CAChapterhouse Comics Group Captain Canuck (2015 series) #0 May 2015 2015-05-02
USImage Peter Panzerfaust (2012 series) #25 December 2016 2016-12-21
USMarvel Cable (2017 series) #150 December 2017 2017-10-18
USMarvel Cable (2017 series) #151 [Jon Malin] January 2018 2017-11-22
USMarvel Cable (2017 series) #152 February 2018 2017-12-13
USMarvel Cable (2017 series) #153 March 2018 2018-01-10
USMarvel Iron Fist (2017 series) #76 March 2018 2018-01-03
USMarvel Old Man Logan (2016 series) #33 March 2018 2018-01-10
USMarvel Old Man Logan (2016 series) #34 March 2018 2018-01-31
USMarvel Cable (2017 series) #154 April 2018 2018-02-14
USMarvel X-Men: Blue (2017 series) #27 July 2018 2018-05-09
FRPanini France Marvel Legacy : Deadpool (2018 series) #1 - Deadpool tue Cable juillet 2018 2018-07-04
FRPanini France Marvel Legacy : X-Men (2018 series) #1 - Mojo planétaire juillet 2018 2018-07-04
FRPanini France Marvel Legacy : Deadpool (2018 series) #2 - On aura bien profité août 2018 2018-08-08
FRPanini France Marvel Legacy : X-Men (2018 series) #2 - Guerre en zone négative août 2018 2018-08-08
FRPanini France Marvel Legacy : Deadpool (2018 series) #3 - Deadpool contre Stevil Rogers septembre 2018 2018-09-05
FRPanini France Marvel Legacy : X-Men (2018 series) #3 - Casse temporel septembre 2018 2018-09-05
FRPanini France Marvel Legacy : Deadpool (2018 series) #4 - C'est peut-être la fin d'une belle amitié octobre 2018 2018-10-03
USMarvel Old Man Logan (2016 series) #49 December 2018 2018-10-17
USMarvel Old Man Logan (2016 series) #50 December 2018 2018-10-31
USMarvel Dawn of X (2019 series) #1 2019 2020-02-12
USMarvel Marvel Comics 1000 (2019 series) 2019 2020-03-04
USMarvel Merry X-Men Holiday Special (2019 series) #1 February 2019 2018-12-05
USMarvel Dead Man Logan (2019 series) #1 - Sins of the Father [June] 2019 2019-06-19
USMarvel Marvel Comics Presents (2019 series) #6 August 2019 2019-06-26
USMarvel Alpha Flight: True North (2019 series) #1 November 2019 2019-09-04
USMarvel Dead Man Logan (2019 series) #10 October 2019 2019-08-07
USMarvel Marvel Comics (2019 series) #1000 October 2019 2019-08-28
USMarvel Dead Man Logan (2019 series) #11 November 2019 2019-09-18
USMarvel Contagion (2019 series) #1 [Juan José Ryp] December 2019 2019-10-02
USMarvel Contagion (2019 series) #2 [Juan José Ryp] December 2019 2019-10-09
USMarvel Contagion (2019 series) #3 [Juan José Ryp] December 2019 2019-10-16
USMarvel Contagion (2019 series) #4 [Juan José Ryp] December 2019 2019-10-23
USMarvel Contagion (2019 series) #5 [Juan José Ryp] December 2019 2019-10-30
USMarvel Dead Man Logan (2019 series) #12 December 2019 2019-10-30
USMarvel X-Men: Summers and Winter (2019 series) [December] 2019 2019-12-15
USMarvel Dawn of X (2019 series) #11 2020 2021-01-20
USMarvel New Mutants (2020 series) #1 [Rod Reis] January 2020 2019-11-06
USMarvel Incoming (2020 series) #1 February 2020 2019-12-25
USMarvel New Mutants (2020 series) #3 February 2020 2019-12-11
USMarvel New Mutants (2020 series) #4 February 2020 2019-12-18
USMarvel Legends of Marvel: X-Men (2020 series) 2020 2020-02-26
USMarvel Avengers of the Wastelands (2020 series) #1 March 2020 2020-01-29
USMarvel Ghost Rider (2019 series) #4 (240) March 2020 2020-01-08
USMarvel New Mutants (2020 series) #6 March 2020 2020-01-29
USMarvel Dawn of X (2019 series) #3 [March] 2020 2020-03-24
USMarvel Dawn of X (2019 series) #4 [March] 2020 2020-03-25
USMarvel Ghost Rider (2019 series) #5 (241) April 2020 2020-02-26
USMarvel New Mutants (2020 series) #8 April 2020 2020-02-26
USMarvel Ghost Rider (2019 series) #6 (242) May 2020 2020-03-11
USMarvel New Mutants (2020 series) #9 May 2020 2020-03-11
USMarvel New Mutants (2020 series) #10 June 2020 2020-06-10
USMarvel Dawn of X (2019 series) #6 [July] 2020 2020-07-01
USMarvel Ghost Rider (2019 series) #7 (243) September 2020 2020-07-08
USMarvel Avengers of the Wastelands (2020 series) #4 2020-08-05
USMarvel New Mutants (2020 series) #11 September 2020 2020-07-22
USMarvel Empyre: X-Men (2020 series) #3 October 2020 2020-08-12
USMarvel Dawn of X (2019 series) #9 2020 2020-10-28
USMarvel New Mutants (2020 series) #13 December 2020 2020-10-14
USMarvel Dawn of X (2019 series) #10 [December] 2020 2020-12-01
USMarvel Dawn of X (2019 series) #14 [March] 2021 2021-03-17
USMarvel Dawn of X (2019 series) #15 [April] 2021 2021-04-21
USMarvel King in Black: Ghost Rider (2021 series) #1 May 2021 2021-03-31
USImage The Silver Coin (2021 series) #3 June 2021 2021-06-16
USMarvel Amazing Spider-Man (2018 series) #68 (869) August 2021 2021-06-09
USMarvel Amazing Spider-Man (2018 series) #69 (870) August 2021 2021-06-23
USMarvel Giant-Size Amazing Spider-Man: Chameleon Conspiracy (2021 series) #1 August 2021 2021-06-30
USMarvel Heroes Reborn: Weapon X & Final Flight (2021 series) #1 August 2021 2021-06-16
USMarvel Carnage: Black, White & Blood (2021 series) #4 September 2021 2021-07-14
USDC Batman Secret Files: Clownhunter (2021 series) #1 [Mico Suayan Cover] October 2021 2021-08-17
USMarvel Sinister War (2021 series) #2 [Bryan Hitch] October 2021 2021-08-04
USMarvel Sinister War (2021 series) #3 [Bryan Hitch] October 2021 2021-08-18
USMarvel Sinister War (2021 series) #4 [Bryan Hitch] November 2021 2021-09-01

Download the shown data as .csv or .json.
Download the raw database fields for the shown objects as .csv or .json. Technical note, this download does include only the IDs of foreign keys and contains no many-to-many relationships.

Issue Checklist for Creator Ed Brisson:

Displaying 1 to 86 of 86 issues matching your query.